createdAt,value
2018-04-30T00:00:11.919Z,15.60
2018-04-30T00:00:45.374Z,13.90
2018-04-30T00:01:18.827Z,14.43
2018-04-30T00:01:53.043Z,14.03
2018-04-30T00:02:26.505Z,13.60
2018-04-30T00:03:00.259Z,13.82
2018-04-30T00:03:33.725Z,13.50
2018-04-30T00:04:06.884Z,13.83
2018-04-30T00:04:40.334Z,12.87
2018-04-30T00:05:13.783Z,13.60
2018-04-30T00:05:47.260Z,13.83
2018-04-30T00:06:20.737Z,13.63
2018-04-30T00:06:55.261Z,13.25
2018-04-30T00:07:29.045Z,13.07
2018-04-30T00:08:02.520Z,13.83
2018-04-30T00:08:35.985Z,13.67
2018-04-30T00:09:09.477Z,13.70
2018-04-30T00:09:42.939Z,13.50
2018-04-30T00:10:17.161Z,12.50
2018-04-30T00:10:50.625Z,13.10
2018-04-30T00:11:24.505Z,12.70
2018-04-30T00:11:57.993Z,13.33
2018-04-30T00:12:31.117Z,13.27
2018-04-30T00:13:04.562Z,12.90
2018-04-30T00:13:38.793Z,13.33
2018-04-30T00:14:12.296Z,12.40
2018-04-30T00:14:45.759Z,13.20
2018-04-30T00:15:19.210Z,12.27
2018-04-30T00:15:52.662Z,13.60
2018-04-30T00:16:26.127Z,13.03
2018-04-30T00:16:59.603Z,13.97
2018-04-30T00:17:33.081Z,14.37
2018-04-30T00:18:06.561Z,13.90
2018-04-30T00:18:40.459Z,14.17
2018-04-30T00:19:13.947Z,12.80
2018-04-30T00:19:47.408Z,12.93
2018-04-30T00:20:21.649Z,13.40
2018-04-30T00:20:55.115Z,14.37
2018-04-30T00:21:28.577Z,12.83
2018-04-30T00:22:02.802Z,14.07
2018-04-30T00:22:36.287Z,12.80
2018-04-30T00:23:10.533Z,13.40
2018-04-30T00:23:44.949Z,13.27
2018-04-30T00:24:19.543Z,12.00
2018-04-30T00:24:53.000Z,12.50
2018-04-30T00:25:26.453Z,12.77
2018-04-30T00:26:00.686Z,12.83
2018-04-30T00:26:34.155Z,13.07
2018-04-30T00:27:08.590Z,12.60
2018-04-30T00:27:42.045Z,12.97
2018-04-30T00:28:15.780Z,14.07
2018-04-30T00:28:49.541Z,12.85
2018-04-30T00:29:23.045Z,13.10
2018-04-30T00:29:57.579Z,12.10
2018-04-30T00:30:31.375Z,13.30
2018-04-30T00:31:04.859Z,13.30
2018-04-30T00:31:38.327Z,13.23
2018-04-30T00:32:11.783Z,12.40
2018-04-30T00:32:45.240Z,13.80
2018-04-30T00:33:18.987Z,13.73
2018-04-30T00:33:52.443Z,13.60
2018-04-30T00:34:25.659Z,13.53
2018-04-30T00:35:00.031Z,13.53
2018-04-30T00:35:33.489Z,13.00
2018-04-30T00:36:07.729Z,13.63
2018-04-30T00:36:41.191Z,13.77
2018-04-30T00:37:15.429Z,13.07
2018-04-30T00:37:48.877Z,13.77
2018-04-30T00:38:23.093Z,13.77
2018-04-30T00:38:56.582Z,13.27
2018-04-30T00:39:30.073Z,13.27
2018-04-30T00:40:02.885Z,14.57
2018-04-30T00:40:36.341Z,14.20
2018-04-30T00:41:09.809Z,14.00
2018-04-30T00:41:43.273Z,14.40
2018-04-30T00:42:17.494Z,13.50
2018-04-30T00:42:50.622Z,13.53
2018-04-30T00:43:24.102Z,13.50
2018-04-30T00:43:57.565Z,14.43
2018-04-30T00:44:31.074Z,14.20
2018-04-30T00:45:04.199Z,14.80
2018-04-30T00:45:37.655Z,14.07
2018-04-30T00:46:11.879Z,14.23
2018-04-30T00:46:45.339Z,15.00
2018-04-30T00:47:19.567Z,14.40
2018-04-30T00:47:53.031Z,15.00
2018-04-30T00:48:27.249Z,14.40
2018-04-30T00:49:00.985Z,15.23
2018-04-30T00:49:34.471Z,13.93
2018-04-30T00:50:07.866Z,15.18
2018-04-30T00:50:41.328Z,14.83
2018-04-30T00:51:14.789Z,14.87
2018-04-30T00:51:48.241Z,15.07
2018-04-30T00:52:22.486Z,14.83
2018-04-30T00:52:55.951Z,15.20
2018-04-30T00:53:29.409Z,15.00
2018-04-30T00:54:03.759Z,14.30
2018-04-30T00:55:45.302Z,16.97
2018-04-30T00:56:19.541Z,15.60
2018-04-30T00:56:52.999Z,15.60
2018-04-30T00:57:26.883Z,16.00
2018-04-30T00:58:00.333Z,15.57
2018-04-30T00:58:33.787Z,15.73
2018-04-30T00:59:07.251Z,15.60
2018-04-30T00:59:41.486Z,14.83
2018-04-30T01:00:14.669Z,16.07
2018-04-30T01:00:48.301Z,16.30
2018-04-30T01:01:22.046Z,15.63
2018-04-30T01:01:55.507Z,15.80
2018-04-30T01:02:28.960Z,14.60
2018-04-30T01:03:02.693Z,15.43
2018-04-30T01:03:36.137Z,15.67
2018-04-30T01:04:09.865Z,16.75
2018-04-30T01:04:43.309Z,15.07
2018-04-30T01:05:17.557Z,15.90
2018-04-30T01:05:50.691Z,17.27
2018-04-30T01:06:24.909Z,15.60
2018-04-30T01:06:59.135Z,16.30
2018-04-30T01:07:33.626Z,17.37
2018-04-30T01:08:07.077Z,16.37
2018-04-30T01:08:40.539Z,14.70
2018-04-30T01:09:13.981Z,16.23
2018-04-30T01:09:47.429Z,16.00
2018-04-30T01:10:20.972Z,15.93
2018-04-30T01:10:54.430Z,15.30
2018-04-30T01:11:28.651Z,16.50
2018-04-30T01:12:02.129Z,15.00
2018-04-30T01:12:35.592Z,16.73
2018-04-30T01:13:09.827Z,16.37
2018-04-30T01:13:43.282Z,16.37
2018-04-30T01:14:17.514Z,15.80
2018-04-30T01:14:50.986Z,16.17
2018-04-30T01:15:23.826Z,16.00
2018-04-30T01:15:57.290Z,15.93
2018-04-30T01:16:30.744Z,14.87
2018-04-30T01:17:03.549Z,17.13
2018-04-30T01:17:36.675Z,16.70
2018-04-30T01:18:10.143Z,16.13
2018-04-30T01:18:43.599Z,16.80
2018-04-30T01:19:17.357Z,15.88
2018-04-30T01:19:50.821Z,16.80
2018-04-30T01:20:24.319Z,17.50
2018-04-30T01:20:58.819Z,16.35
2018-04-30T01:21:32.347Z,16.27
2018-04-30T01:22:05.482Z,16.13
2018-04-30T01:22:39.252Z,17.03
2018-04-30T01:23:12.992Z,16.12
2018-04-30T01:23:46.717Z,17.40
2018-04-30T01:24:19.843Z,15.97
2018-04-30T01:24:53.296Z,16.90
2018-04-30T01:25:27.077Z,16.27
2018-04-30T01:26:01.312Z,16.80
2018-04-30T01:26:34.442Z,15.87
2018-04-30T01:27:07.905Z,16.10
2018-04-30T01:27:41.374Z,16.53
2018-04-30T01:28:14.845Z,16.63
2018-04-30T01:28:48.305Z,17.40
2018-04-30T01:29:21.778Z,17.70
2018-04-30T01:29:56.021Z,16.23
2018-04-30T01:30:29.305Z,15.83
2018-04-30T01:31:02.545Z,16.67
2018-04-30T01:31:36.287Z,16.75
2018-04-30T01:32:09.679Z,16.75
2018-04-30T01:32:43.473Z,16.67
2018-04-30T01:33:16.973Z,16.80
2018-04-30T01:33:50.697Z,17.20
2018-04-30T01:34:24.418Z,16.20
2018-04-30T01:34:57.889Z,16.83
2018-04-30T01:35:31.385Z,17.37
2018-04-30T01:36:04.845Z,16.03
2018-04-30T01:36:39.081Z,15.40
2018-04-30T01:37:12.552Z,15.50
2018-04-30T01:37:46.013Z,15.93
2018-04-30T01:38:19.479Z,16.77
2018-04-30T01:38:53.709Z,16.60
2018-04-30T01:39:27.208Z,16.23
2018-04-30T01:40:00.675Z,16.57
2018-04-30T01:40:34.156Z,16.20
2018-04-30T01:41:08.177Z,16.77
2018-04-30T01:41:42.689Z,16.73
2018-04-30T01:42:15.809Z,16.93
2018-04-30T01:42:49.266Z,16.00
2018-04-30T01:43:22.734Z,15.77
2018-04-30T01:43:56.218Z,15.53
2018-04-30T01:44:29.441Z,16.70
2018-04-30T01:45:02.896Z,16.40
2018-04-30T01:45:36.371Z,15.93
2018-04-30T01:46:09.851Z,16.93
2018-04-30T01:46:43.321Z,16.37
2018-04-30T01:47:16.971Z,15.87
2018-04-30T01:47:50.428Z,15.47
2018-04-30T01:48:23.649Z,16.13
2018-04-30T01:48:57.660Z,15.60
2018-04-30T01:49:31.118Z,16.60
2018-04-30T01:50:05.029Z,16.40
2018-04-30T01:50:39.293Z,16.70
2018-04-30T01:51:12.750Z,14.67
2018-04-30T01:51:45.977Z,15.80
2018-04-30T01:52:19.205Z,17.53
2018-04-30T01:52:52.665Z,15.80
2018-04-30T01:53:26.550Z,14.93
2018-04-30T01:53:59.684Z,14.97
2018-04-30T01:54:32.953Z,16.53
2018-04-30T01:55:06.414Z,16.17
2018-04-30T01:55:39.896Z,15.20
2018-04-30T01:56:13.349Z,15.77
2018-04-30T01:56:47.357Z,16.67
2018-04-30T01:57:21.578Z,14.67
2018-04-30T01:57:55.034Z,16.47
2018-04-30T01:58:29.284Z,15.70
2018-04-30T01:59:02.768Z,15.63
2018-04-30T01:59:35.909Z,14.77
2018-04-30T02:00:09.905Z,15.43
2018-04-30T02:00:44.156Z,14.30
2018-04-30T02:01:18.167Z,16.40
2018-04-30T02:01:51.933Z,15.60
2018-04-30T02:02:25.189Z,15.27
2018-04-30T02:02:58.435Z,15.40
2018-04-30T02:03:31.901Z,14.63
2018-04-30T02:04:05.368Z,14.20
2018-04-30T02:04:38.818Z,13.73
2018-04-30T02:05:12.717Z,15.40
2018-04-30T02:05:46.635Z,14.70
2018-04-30T02:06:21.328Z,15.13
2018-04-30T02:06:55.555Z,15.47
2018-04-30T02:07:28.685Z,16.33
2018-04-30T02:08:02.949Z,15.70
2018-04-30T02:08:36.414Z,14.73
2018-04-30T02:09:09.539Z,16.70
2018-04-30T02:09:42.998Z,15.73
2018-04-30T02:10:16.721Z,15.93
2018-04-30T02:10:50.184Z,15.82
2018-04-30T02:11:23.664Z,14.90
2018-04-30T02:11:56.789Z,14.90
2018-04-30T02:12:31.012Z,15.10
2018-04-30T02:13:04.469Z,15.77
2018-04-30T02:13:39.392Z,15.20
2018-04-30T02:14:13.778Z,15.50
2018-04-30T02:14:47.502Z,15.00
2018-04-30T02:15:20.894Z,15.15
2018-04-30T02:15:54.395Z,14.90
2018-04-30T02:16:28.546Z,14.70
2018-04-30T02:17:02.766Z,14.07
2018-04-30T02:17:35.942Z,15.40
2018-04-30T02:18:09.675Z,15.98
2018-04-30T02:18:43.432Z,15.82
2018-04-30T02:19:16.889Z,15.80
2018-04-30T02:19:50.623Z,15.90
2018-04-30T02:20:24.076Z,13.33
2018-04-30T02:20:57.849Z,16.27
2018-04-30T02:21:31.524Z,14.93
2018-04-30T02:22:04.686Z,15.43
2018-04-30T02:22:38.841Z,15.32
2018-04-30T02:23:13.070Z,15.37
2018-04-30T02:23:46.532Z,15.30
2018-04-30T02:24:20.826Z,15.10
2018-04-30T02:24:55.176Z,14.53
2018-04-30T02:25:28.353Z,15.03
2018-04-30T02:26:01.834Z,16.73
2018-04-30T02:26:35.306Z,15.20
2018-04-30T02:27:08.756Z,15.83
2018-04-30T02:27:42.414Z,15.40
2018-04-30T02:28:16.894Z,15.57
2018-04-30T02:28:50.030Z,14.80
2018-04-30T02:29:24.255Z,15.00
2018-04-30T02:29:57.387Z,14.57
2018-04-30T02:30:30.856Z,14.13
2018-04-30T02:31:04.354Z,14.63
2018-04-30T02:31:37.810Z,15.30
2018-04-30T02:32:12.294Z,15.02
2018-04-30T02:32:46.026Z,15.00
2018-04-30T02:33:19.764Z,14.52
2018-04-30T02:33:54.272Z,14.40
2018-04-30T02:34:27.739Z,14.03
2018-04-30T02:35:01.460Z,16.00
2018-04-30T02:35:34.929Z,14.77
2018-04-30T02:36:09.204Z,15.03
2018-04-30T02:36:43.448Z,15.37
2018-04-30T02:37:16.919Z,15.50
2018-04-30T02:37:51.142Z,14.80
2018-04-30T02:38:24.600Z,13.77
2018-04-30T02:38:58.518Z,15.23
2018-04-30T02:39:31.982Z,15.07
2018-04-30T02:40:05.882Z,14.77
2018-04-30T02:40:40.126Z,14.30
2018-04-30T02:41:13.612Z,14.30
2018-04-30T02:41:48.104Z,15.50
2018-04-30T02:42:21.579Z,14.93
2018-04-30T02:42:54.985Z,13.25
2018-04-30T02:43:29.482Z,15.50
2018-04-30T02:44:02.615Z,13.67
2018-04-30T02:44:36.844Z,14.60
2018-04-30T02:45:09.922Z,14.65
2018-04-30T02:45:44.162Z,14.37
2018-04-30T02:46:17.656Z,14.20
2018-04-30T02:46:51.126Z,14.70
2018-04-30T02:47:24.614Z,15.03
2018-04-30T02:47:58.086Z,14.20
2018-04-30T02:48:32.594Z,15.88
2018-04-30T02:49:05.387Z,14.50
2018-04-30T02:49:39.125Z,13.70
2018-04-30T02:50:13.349Z,14.30
2018-04-30T02:50:46.813Z,14.47
2018-04-30T02:51:20.578Z,14.00
2018-04-30T02:51:54.054Z,14.77
2018-04-30T02:52:27.516Z,14.80
2018-04-30T02:53:00.923Z,14.32
2018-04-30T02:53:34.668Z,15.05
2018-04-30T02:54:08.125Z,14.10
2018-04-30T02:54:41.872Z,14.43
2018-04-30T02:55:15.324Z,14.93
2018-04-30T02:55:48.781Z,13.63
2018-04-30T02:56:22.270Z,13.97
2018-04-30T02:56:56.000Z,14.95
2018-04-30T02:57:29.129Z,14.90
2018-04-30T02:58:02.572Z,15.10
2018-04-30T02:58:35.692Z,13.70
2018-04-30T02:59:09.923Z,14.73
2018-04-30T02:59:44.446Z,13.40
2018-04-30T03:00:17.926Z,13.20
2018-04-30T03:00:52.426Z,13.15
2018-04-30T03:01:25.913Z,14.40
2018-04-30T03:01:59.394Z,14.70
2018-04-30T03:02:33.142Z,13.50
2018-04-30T03:03:06.862Z,14.50
2018-04-30T03:03:40.606Z,14.25
2018-04-30T03:04:14.061Z,14.77
2018-04-30T03:04:48.226Z,14.85
2018-04-30T03:05:21.973Z,14.35
2018-04-30T03:05:55.431Z,13.67
2018-04-30T03:06:29.994Z,13.93
2018-04-30T03:07:03.385Z,14.48
2018-04-30T03:07:36.516Z,14.10
2018-04-30T03:08:10.673Z,14.87
2018-04-30T03:08:44.400Z,13.62
2018-04-30T03:09:18.909Z,13.90
2018-04-30T03:09:53.420Z,13.93
2018-04-30T03:10:27.574Z,13.40
2018-04-30T03:11:00.976Z,14.43
2018-04-30T03:11:34.524Z,13.63
2018-04-30T03:12:08.262Z,14.27
2018-04-30T03:12:42.165Z,14.27
2018-04-30T03:13:15.648Z,13.70
2018-04-30T03:13:49.062Z,14.38
2018-04-30T03:14:22.522Z,15.30
2018-04-30T03:14:56.260Z,14.20
2018-04-30T03:15:30.078Z,14.45
2018-04-30T03:16:04.333Z,14.57
2018-04-30T03:16:38.098Z,14.50
2018-04-30T03:17:12.597Z,13.23
2018-04-30T03:17:46.414Z,13.88
2018-04-30T03:18:20.910Z,13.80
2018-04-30T03:18:55.419Z,13.23
2018-04-30T03:19:29.259Z,14.60
2018-04-30T03:20:03.000Z,14.05
2018-04-30T03:20:36.314Z,13.87
2018-04-30T03:21:09.765Z,14.27
2018-04-30T03:21:42.917Z,14.00
2018-04-30T03:22:16.657Z,14.40
2018-04-30T03:22:50.385Z,13.65
2018-04-30T03:23:24.119Z,13.32
2018-04-30T03:23:57.600Z,13.77
2018-04-30T03:24:31.045Z,14.43
2018-04-30T03:25:04.823Z,14.02
2018-04-30T03:25:37.949Z,13.77
2018-04-30T03:26:11.421Z,14.27
2018-04-30T03:26:45.689Z,13.70
2018-04-30T03:27:19.504Z,13.75
2018-04-30T03:27:53.859Z,14.80
2018-04-30T03:28:27.322Z,14.50
2018-04-30T03:29:00.785Z,15.07
2018-04-30T03:29:34.682Z,14.80
2018-04-30T03:30:08.584Z,14.80
2018-04-30T03:30:42.328Z,14.68
2018-04-30T03:31:15.735Z,14.35
2018-04-30T03:31:49.234Z,14.97
2018-04-30T03:32:22.973Z,13.82
2018-04-30T03:32:56.716Z,14.63
2018-04-30T03:33:30.118Z,14.45
2018-04-30T03:34:03.867Z,14.70
2018-04-30T03:34:37.603Z,13.60
2018-04-30T03:35:11.333Z,13.50
2018-04-30T03:35:45.082Z,13.25
2018-04-30T03:36:18.545Z,14.40
2018-04-30T03:36:51.711Z,14.33
2018-04-30T03:37:25.114Z,14.27
2018-04-30T03:37:58.938Z,13.62
2018-04-30T03:38:32.404Z,14.87
2018-04-30T03:39:05.889Z,13.98
2018-04-30T03:39:39.358Z,14.80
2018-04-30T03:40:12.758Z,14.18
2018-04-30T03:40:46.493Z,15.18
2018-04-30T03:41:19.956Z,14.83
2018-04-30T03:41:54.493Z,13.60
2018-04-30T03:42:28.225Z,13.15
2018-04-30T03:43:01.953Z,14.35
2018-04-30T03:43:35.698Z,14.25
2018-04-30T03:44:09.436Z,13.62
2018-04-30T03:44:43.187Z,14.43
2018-04-30T03:45:16.583Z,14.73
2018-04-30T03:45:50.323Z,14.10
2018-04-30T03:46:24.065Z,15.05
2018-04-30T03:46:57.546Z,13.73
2018-04-30T03:47:31.273Z,13.95
2018-04-30T03:48:04.846Z,15.20
2018-04-30T03:48:39.352Z,14.20
2018-04-30T03:49:13.899Z,14.30
2018-04-30T03:49:47.441Z,14.33
2018-04-30T03:50:21.019Z,14.03
2018-04-30T03:50:54.752Z,12.63
2018-04-30T03:51:28.480Z,13.80
2018-04-30T03:52:02.241Z,13.95
2018-04-30T03:52:35.703Z,13.83
2018-04-30T03:53:10.218Z,13.70
2018-04-30T03:53:43.340Z,14.40
2018-04-30T03:54:17.071Z,15.27
2018-04-30T03:54:50.538Z,13.60
2018-04-30T03:55:23.994Z,14.10
2018-04-30T03:55:57.729Z,15.52
2018-04-30T03:56:31.211Z,14.30
2018-04-30T03:57:05.333Z,12.73
2018-04-30T03:57:39.074Z,13.40
2018-04-30T03:58:12.811Z,14.57
2018-04-30T03:58:46.264Z,13.77
2018-04-30T03:59:19.999Z,14.05
2018-04-30T03:59:53.458Z,14.37
2018-04-30T04:00:38.294Z,14.03
2018-04-30T04:01:22.926Z,13.40
2018-04-30T04:02:08.250Z,15.47
2018-04-30T04:02:53.108Z,14.02
2018-04-30T04:03:37.990Z,14.73
2018-04-30T04:04:23.339Z,15.20
2018-04-30T04:05:08.302Z,12.75
2018-04-30T04:05:53.141Z,15.20
2018-04-30T04:06:37.801Z,14.07
2018-04-30T04:07:11.558Z,14.20
2018-04-30T04:07:45.278Z,14.32
2018-04-30T04:08:19.008Z,13.57
2018-04-30T04:08:52.473Z,15.77
2018-04-30T04:09:26.202Z,13.90
2018-04-30T04:09:59.939Z,13.73
2018-04-30T04:10:33.654Z,15.55
2018-04-30T04:11:07.381Z,13.98
2018-04-30T04:11:41.117Z,13.90
2018-04-30T04:12:14.920Z,14.70
2018-04-30T04:12:48.666Z,14.43
2018-04-30T04:13:22.581Z,14.02
2018-04-30T04:13:57.086Z,14.65
2018-04-30T04:14:30.822Z,13.85
2018-04-30T04:15:05.337Z,14.43
2018-04-30T04:15:39.830Z,13.60
2018-04-30T04:16:13.296Z,14.00
2018-04-30T04:16:47.022Z,13.30
2018-04-30T04:17:20.514Z,14.63
2018-04-30T04:17:54.260Z,13.45
2018-04-30T04:18:27.994Z,14.73
2018-04-30T04:19:02.162Z,13.75
2018-04-30T04:19:35.902Z,12.95
2018-04-30T04:20:09.030Z,13.53
2018-04-30T04:20:43.260Z,14.27
2018-04-30T04:21:16.718Z,13.20
2018-04-30T04:21:50.950Z,13.90
2018-04-30T04:22:24.446Z,13.67
2018-04-30T04:22:57.902Z,13.03
2018-04-30T04:23:31.639Z,13.07
2018-04-30T04:24:05.390Z,13.80
2018-04-30T04:24:39.890Z,12.60
2018-04-30T04:25:13.619Z,13.18
2018-04-30T04:25:47.352Z,14.20
2018-04-30T04:26:21.086Z,12.90
2018-04-30T04:26:54.554Z,12.40
2018-04-30T04:27:28.056Z,13.30
2018-04-30T04:28:01.520Z,14.03
2018-04-30T04:28:34.983Z,12.87
2018-04-30T04:29:08.730Z,12.65
2018-04-30T04:29:42.450Z,13.75
2018-04-30T04:30:15.915Z,12.93
2018-04-30T04:30:49.370Z,12.20
2018-04-30T04:31:23.872Z,12.70
2018-04-30T04:31:58.388Z,12.37
2018-04-30T04:32:31.885Z,12.90
2018-04-30T04:33:05.342Z,12.40
2018-04-30T04:33:38.797Z,12.03
2018-04-30T04:34:13.036Z,12.80
2018-04-30T04:34:46.490Z,12.13
2018-04-30T04:35:20.210Z,12.57
2018-04-30T04:35:53.666Z,12.93
2018-04-30T04:36:27.891Z,12.17
2018-04-30T04:37:02.066Z,11.90
2018-04-30T04:37:36.321Z,12.13
2018-04-30T04:38:09.779Z,11.60
2018-04-30T04:38:43.236Z,12.03
2018-04-30T04:39:17.466Z,11.20
2018-04-30T04:39:50.914Z,12.40
2018-04-30T04:40:25.862Z,12.67
2018-04-30T04:41:00.098Z,11.60
2018-04-30T04:41:33.559Z,11.33
2018-04-30T04:42:06.688Z,11.13
2018-04-30T04:42:40.188Z,11.50
2018-04-30T04:43:13.650Z,11.90
2018-04-30T04:43:47.119Z,10.80
2018-04-30T04:44:20.580Z,10.40
2018-04-30T04:44:54.044Z,11.33
2018-04-30T04:45:28.261Z,10.80
2018-04-30T04:46:01.736Z,11.43
2018-04-30T04:46:35.196Z,10.93
2018-04-30T04:47:08.662Z,11.30
2018-04-30T04:47:42.170Z,10.90
2018-04-30T04:48:15.628Z,11.60
2018-04-30T04:48:49.088Z,10.67
2018-04-30T04:49:22.552Z,10.77
2018-04-30T04:49:55.448Z,10.60
2018-04-30T04:50:28.940Z,10.90
2018-04-30T04:51:02.408Z,10.60
2018-04-30T04:51:35.892Z,11.47
2018-04-30T04:52:09.356Z,10.73
2018-04-30T04:52:43.598Z,10.60
2018-04-30T04:53:17.060Z,11.23
2018-04-30T04:53:50.524Z,11.23
2018-04-30T04:54:24.734Z,10.27
2018-04-30T04:54:58.192Z,9.43
2018-04-30T04:55:31.956Z,10.43
2018-04-30T04:56:05.412Z,10.30
2018-04-30T04:56:39.922Z,10.45
2018-04-30T04:57:13.396Z,10.67
2018-04-30T04:57:46.868Z,10.23
2018-04-30T04:58:21.094Z,10.70
2018-04-30T04:58:54.550Z,10.27
2018-04-30T04:59:28.768Z,10.30
2018-04-30T05:00:02.238Z,9.83
2018-04-30T05:00:36.510Z,10.37
2018-04-30T05:01:09.994Z,10.33
2018-04-30T05:01:43.450Z,9.13
2018-04-30T05:02:16.968Z,9.97
2018-04-30T05:02:51.346Z,10.00
2018-04-30T05:03:24.813Z,9.50
2018-04-30T05:03:58.292Z,9.50
2018-04-30T05:04:31.746Z,10.60
2018-04-30T05:05:05.958Z,10.10
2018-04-30T05:05:40.180Z,10.87
2018-04-30T05:06:13.306Z,10.40
2018-04-30T05:06:46.784Z,10.10
2018-04-30T05:07:20.242Z,10.00
2018-04-30T05:07:53.728Z,9.60
2018-04-30T05:08:27.190Z,9.47
2018-04-30T05:09:00.637Z,10.10
2018-04-30T05:09:34.098Z,9.10
2018-04-30T05:10:07.582Z,10.47
2018-04-30T05:10:41.030Z,9.70
2018-04-30T05:11:14.493Z,9.83
2018-04-30T05:11:47.952Z,11.10
2018-04-30T05:12:22.228Z,9.53
2018-04-30T05:12:56.648Z,9.27
2018-04-30T05:13:30.112Z,9.27
2018-04-30T05:14:03.578Z,9.60
2018-04-30T05:14:37.028Z,9.57
2018-04-30T05:15:10.492Z,10.00
2018-04-30T05:15:43.966Z,10.03
2018-04-30T05:16:17.421Z,9.33
2018-04-30T05:16:50.890Z,9.70
2018-04-30T05:17:24.362Z,9.80
2018-04-30T05:17:58.666Z,9.17
2018-04-30T05:18:32.920Z,9.30
2018-04-30T05:19:06.380Z,9.70
2018-04-30T05:19:39.852Z,10.17
2018-04-30T05:20:13.310Z,9.70
2018-04-30T05:20:46.767Z,9.50
2018-04-30T05:21:20.413Z,9.10
2018-04-30T05:21:53.872Z,8.57
2018-04-30T05:22:27.336Z,9.40
2018-04-30T05:23:00.848Z,9.30
2018-04-30T05:23:34.506Z,8.60
2018-04-30T05:24:07.740Z,9.43
2018-04-30T05:24:41.196Z,8.93
2018-04-30T05:25:14.654Z,8.80
2018-04-30T05:25:47.782Z,9.73
2018-04-30T05:26:21.239Z,9.10
2018-04-30T05:26:55.469Z,9.40
2018-04-30T05:27:28.920Z,8.60
2018-04-30T05:28:02.398Z,9.30
2018-04-30T05:28:35.844Z,9.00
2018-04-30T05:29:09.302Z,9.27
2018-04-30T05:29:43.526Z,8.83
2018-04-30T05:30:17.928Z,8.97
2018-04-30T05:30:51.384Z,8.30
2018-04-30T05:31:25.598Z,8.80
2018-04-30T05:31:59.818Z,8.80
2018-04-30T05:32:33.274Z,10.43
2018-04-30T05:33:07.526Z,8.87
2018-04-30T05:33:40.984Z,9.33
2018-04-30T05:34:14.438Z,8.67
2018-04-30T05:34:47.892Z,8.57
2018-04-30T05:35:20.694Z,9.43
2018-04-30T05:35:54.598Z,8.20
2018-04-30T05:36:28.824Z,8.70
2018-04-30T05:37:02.295Z,9.00
2018-04-30T05:37:36.516Z,8.70
2018-04-30T05:38:10.018Z,8.80
2018-04-30T05:38:43.497Z,8.40
2018-04-30T05:39:16.715Z,9.30
2018-04-30T05:39:49.930Z,8.47
2018-04-30T05:40:23.388Z,9.13
2018-04-30T05:40:57.276Z,9.00
2018-04-30T05:41:30.393Z,8.60
2018-04-30T05:42:03.278Z,8.43
2018-04-30T05:42:36.736Z,8.30
2018-04-30T05:43:10.222Z,8.33
2018-04-30T05:43:43.686Z,8.47
2018-04-30T05:44:17.676Z,9.50
2018-04-30T05:44:51.121Z,8.27
2018-04-30T05:45:24.571Z,9.00
2018-04-30T05:45:58.075Z,8.23
2018-04-30T05:46:31.533Z,8.70
2018-04-30T05:47:05.518Z,9.13
2018-04-30T05:47:39.770Z,8.50
2018-04-30T05:48:13.258Z,8.70
2018-04-30T05:48:46.711Z,8.90
2018-04-30T05:49:20.156Z,8.67
2018-04-30T05:49:53.609Z,8.23
2018-04-30T05:50:26.797Z,8.00
2018-04-30T05:51:00.267Z,8.57
2018-04-30T05:51:33.750Z,8.50
2018-04-30T05:52:07.213Z,8.80
2018-04-30T05:52:40.657Z,8.47
2018-04-30T05:53:13.907Z,7.97
2018-04-30T05:53:47.359Z,8.63
2018-04-30T05:54:20.825Z,10.07
2018-04-30T05:54:55.065Z,8.60
2018-04-30T05:55:28.542Z,8.53
2018-04-30T05:56:01.981Z,9.90
2018-04-30T05:56:35.430Z,8.30
2018-04-30T05:57:08.897Z,8.20
2018-04-30T05:57:42.377Z,8.90
2018-04-30T05:58:15.977Z,8.50
2018-04-30T05:58:49.200Z,8.50
2018-04-30T05:59:22.321Z,9.13
2018-04-30T05:59:55.775Z,8.63
2018-04-30T06:00:30.077Z,9.20
2018-04-30T06:01:03.919Z,9.30
2018-04-30T06:01:37.517Z,9.57
2018-04-30T06:02:10.989Z,9.43
2018-04-30T06:02:44.455Z,8.37
2018-04-30T06:03:17.929Z,8.70
2018-04-30T06:03:52.137Z,9.60
2018-04-30T06:04:25.667Z,9.70
2018-04-30T06:04:59.258Z,8.73
2018-04-30T06:05:32.716Z,9.70
2018-04-30T06:06:05.843Z,9.50
2018-04-30T06:06:39.293Z,8.87
2018-04-30T06:07:12.765Z,9.20
2018-04-30T06:07:46.261Z,8.83
2018-04-30T06:08:19.733Z,9.70
2018-04-30T06:08:53.193Z,9.30
2018-04-30T06:09:27.419Z,9.10
2018-04-30T06:10:00.923Z,9.27
2018-04-30T06:10:34.363Z,9.97
2018-04-30T06:11:08.588Z,9.90
2018-04-30T06:11:42.057Z,10.20
2018-04-30T06:12:15.583Z,10.00
2018-04-30T06:12:49.965Z,9.50
2018-04-30T06:13:23.457Z,10.00
2018-04-30T06:13:57.826Z,9.27
2018-04-30T06:14:32.063Z,9.23
2018-04-30T06:15:05.524Z,9.20
2018-04-30T06:15:38.981Z,9.13
2018-04-30T06:16:12.878Z,9.47
2018-04-30T06:16:46.349Z,10.27
2018-04-30T06:17:19.809Z,9.80
2018-04-30T06:17:53.275Z,11.10
2018-04-30T06:18:26.761Z,9.67
2018-04-30T06:19:00.225Z,9.43
2018-04-30T06:19:33.735Z,9.77
2018-04-30T06:20:07.200Z,10.10
2018-04-30T06:20:40.653Z,9.87
2018-04-30T06:21:14.871Z,10.20
2018-04-30T06:21:49.091Z,9.83
2018-04-30T06:22:22.546Z,9.60
2018-04-30T06:22:56.787Z,9.07
2018-04-30T06:23:30.289Z,9.90
2018-04-30T06:24:03.772Z,10.60
2018-04-30T06:24:37.247Z,10.77
2018-04-30T06:25:10.704Z,9.90
2018-04-30T06:25:44.937Z,10.10
2018-04-30T06:26:18.397Z,10.17
2018-04-30T06:26:52.668Z,9.90
2018-04-30T06:27:26.263Z,10.27
2018-04-30T06:27:59.734Z,10.07
2018-04-30T06:28:33.231Z,9.63
2018-04-30T06:29:06.687Z,9.80
2018-04-30T06:29:40.147Z,9.80
2018-04-30T06:30:13.611Z,9.83
2018-04-30T06:30:47.835Z,9.30
2018-04-30T06:31:21.315Z,10.50
2018-04-30T06:31:54.773Z,9.93
2018-04-30T06:32:29.004Z,10.17
2018-04-30T06:33:02.449Z,10.03
2018-04-30T06:33:36.713Z,10.57
2018-04-30T06:34:10.177Z,10.70
2018-04-30T06:34:43.637Z,9.33
2018-04-30T06:35:17.859Z,10.47
2018-04-30T06:35:51.352Z,10.17
2018-04-30T06:36:25.758Z,9.80
2018-04-30T06:36:59.225Z,10.10
2018-04-30T06:37:32.676Z,9.60
2018-04-30T06:38:06.131Z,9.07
2018-04-30T06:38:39.633Z,9.80
2018-04-30T06:39:13.087Z,9.30
2018-04-30T06:39:46.534Z,9.40
2018-04-30T06:40:20.803Z,9.97
2018-04-30T06:40:54.266Z,10.23
2018-04-30T06:41:27.731Z,9.37
2018-04-30T06:42:00.967Z,9.90
2018-04-30T06:42:34.430Z,10.20
2018-04-30T06:43:07.903Z,9.33
2018-04-30T06:43:42.084Z,10.30
2018-04-30T06:44:15.543Z,9.03
2018-04-30T06:44:49.777Z,9.50
2018-04-30T06:45:23.223Z,9.17
2018-04-30T06:45:57.437Z,9.33
2018-04-30T06:46:31.663Z,9.27
2018-04-30T06:47:05.115Z,9.70
2018-04-30T06:47:39.338Z,8.80
2018-04-30T06:48:13.753Z,8.67
2018-04-30T06:48:47.275Z,8.23
2018-04-30T06:49:20.727Z,9.50
2018-04-30T06:49:54.175Z,9.50
2018-04-30T06:50:28.077Z,9.07
2018-04-30T06:51:02.306Z,9.50
2018-04-30T06:51:35.819Z,9.90
2018-04-30T06:52:09.273Z,8.90
2018-04-30T06:52:42.725Z,9.03
2018-04-30T06:53:16.953Z,9.40
2018-04-30T06:53:50.439Z,8.83
2018-04-30T06:54:23.891Z,9.63
2018-04-30T06:54:58.145Z,9.40
2018-04-30T06:55:31.595Z,8.73
2018-04-30T06:56:05.809Z,8.90
2018-04-30T06:56:39.263Z,8.93
2018-04-30T06:57:12.719Z,9.50
2018-04-30T06:57:46.184Z,9.03
2018-04-30T06:58:19.651Z,9.23
2018-04-30T06:58:53.153Z,10.73
2018-04-30T06:59:26.613Z,10.10
2018-04-30T07:00:00.072Z,9.63
2018-04-30T07:00:34.314Z,9.23
2018-04-30T07:01:07.765Z,9.10
2018-04-30T07:01:41.995Z,10.00
2018-04-30T07:02:15.481Z,9.70
2018-04-30T07:02:48.945Z,9.70
2018-04-30T07:03:23.167Z,8.50
2018-04-30T07:03:56.763Z,9.20
2018-04-30T07:04:30.213Z,9.50
2018-04-30T07:05:04.450Z,9.43
2018-04-30T07:05:37.904Z,10.00
2018-04-30T07:06:12.140Z,9.50
2018-04-30T07:06:45.595Z,8.73
2018-04-30T07:07:19.825Z,9.90
2018-04-30T07:07:52.951Z,9.50
2018-04-30T07:08:26.411Z,10.27
2018-04-30T07:08:59.905Z,10.10
2018-04-30T07:09:33.443Z,9.13
2018-04-30T07:10:06.683Z,9.13
2018-04-30T07:10:40.148Z,9.10
2018-04-30T07:11:13.598Z,9.10
2018-04-30T07:11:47.093Z,10.03
2018-04-30T07:12:20.556Z,9.47
2018-04-30T07:12:54.011Z,9.17
2018-04-30T07:13:27.488Z,10.10
2018-04-30T07:14:00.985Z,8.67
2018-04-30T07:14:35.207Z,9.33
2018-04-30T07:15:09.441Z,9.83
2018-04-30T07:15:42.913Z,9.53
2018-04-30T07:16:16.384Z,9.03
2018-04-30T07:16:50.609Z,9.10
2018-04-30T07:17:24.087Z,8.90
2018-04-30T07:17:57.543Z,9.67
2018-04-30T07:18:31.765Z,10.53
2018-04-30T07:19:04.898Z,13.00
2018-04-30T07:19:41.409Z,9.30
2018-04-30T07:20:14.899Z,11.00